createdAt,value
2023-05-08T00:00:12.308Z,25.05
2023-05-08T00:02:43.879Z,25.05
2023-05-08T00:05:13.544Z,25.17
2023-05-08T00:07:42.927Z,25.16
2023-05-08T00:10:13.862Z,24.77
2023-05-08T00:12:43.243Z,24.78
2023-05-08T00:15:12.896Z,24.50
2023-05-08T00:17:42.394Z,24.67
2023-05-08T00:20:13.244Z,25.48
2023-05-08T00:22:43.780Z,26.04
2023-05-08T00:25:13.283Z,26.49
2023-05-08T00:27:42.686Z,26.79
2023-05-08T00:30:12.770Z,26.88
2023-05-08T00:32:43.133Z,27.16
2023-05-08T00:35:12.458Z,27.12
2023-05-08T00:37:45.275Z,27.37
2023-05-08T00:40:14.979Z,27.72
2023-05-08T00:42:44.343Z,28.14
2023-05-08T00:45:14.099Z,28.66
2023-05-08T00:47:43.940Z,28.83
2023-05-08T00:50:14.158Z,29.05
2023-05-08T00:52:44.107Z,29.15
2023-05-08T00:55:13.752Z,29.33
2023-05-08T00:57:43.159Z,29.60
2023-05-08T01:00:13.671Z,29.68
2023-05-08T01:02:43.423Z,29.82
2023-05-08T01:05:13.605Z,29.64
2023-05-08T01:07:43.465Z,29.94
2023-05-08T01:10:13.206Z,30.16
2023-05-08T01:13:01.835Z,30.35
2023-05-08T01:15:49.854Z,30.83
2023-05-08T01:18:56.212Z,31.07
2023-05-08T01:21:48.670Z,31.42
2023-05-08T01:24:55.558Z,31.77
2023-05-08T01:28:20.461Z,32.25
2023-05-08T01:31:36.285Z,32.54
2023-05-08T01:34:33.042Z,32.73
2023-05-08T01:37:12.983Z,32.84
2023-05-08T01:40:14.056Z,33.05
2023-05-08T01:43:14.618Z,33.35
2023-05-08T01:45:50.009Z,33.73
2023-05-08T01:48:46.256Z,33.94
2023-05-08T01:51:24.373Z,34.15
2023-05-08T01:54:10.228Z,34.70
2023-05-08T01:56:42.001Z,35.08
2023-05-08T01:59:16.381Z,35.56
2023-05-08T02:01:49.635Z,35.79
2023-05-08T02:04:20.880Z,35.90
2023-05-08T02:06:52.825Z,36.37
2023-05-08T02:09:24.501Z,36.96
2023-05-08T02:11:56.516Z,36.94
2023-05-08T02:14:28.378Z,37.17
2023-05-08T02:16:59.660Z,37.49
2023-05-08T02:19:31.979Z,37.68
2023-05-08T02:22:03.075Z,37.97
2023-05-08T02:24:37.223Z,38.44
2023-05-08T02:27:11.042Z,38.87
2023-05-08T02:29:42.015Z,39.32
2023-05-08T02:32:13.401Z,39.81
2023-05-08T02:34:54.799Z,40.40
2023-05-08T02:37:30.404Z,41.09
2023-05-08T02:40:01.383Z,41.61
2023-05-08T02:42:32.449Z,42.28
2023-05-08T02:45:01.822Z,42.54
2023-05-08T02:47:46.380Z,42.96
2023-05-08T02:50:57.207Z,43.36
2023-05-08T02:53:48.277Z,43.49
2023-05-08T02:56:50.581Z,43.99
2023-05-08T02:59:44.517Z,44.39
2023-05-08T03:02:32.436Z,44.43
2023-05-08T03:05:23.231Z,44.75
2023-05-08T03:08:32.919Z,44.71
2023-05-08T03:11:38.998Z,45.29
2023-05-08T03:14:24.420Z,45.22
2023-05-08T03:17:08.881Z,45.40
2023-05-08T03:19:48.973Z,45.83
2023-05-08T03:22:29.837Z,45.98
2023-05-08T03:25:16.272Z,46.28
2023-05-08T03:27:53.272Z,46.18
2023-05-08T03:30:24.087Z,46.11
2023-05-08T03:33:04.825Z,46.30
2023-05-08T03:35:43.577Z,46.39
2023-05-08T03:38:20.312Z,46.37
2023-05-08T03:40:50.571Z,46.44
2023-05-08T03:43:24.990Z,46.52
2023-05-08T03:46:02.085Z,46.55
2023-05-08T03:48:37.339Z,46.47
2023-05-08T03:51:14.918Z,46.54
2023-05-08T03:53:50.274Z,46.55
2023-05-08T03:56:24.018Z,46.80
2023-05-08T03:59:31.543Z,47.06
2023-05-08T04:02:15.124Z,46.97
2023-05-08T04:04:56.691Z,47.01
2023-05-08T04:07:51.800Z,47.20
2023-05-08T04:10:42.378Z,47.30
2023-05-08T04:13:21.653Z,47.30
2023-05-08T04:16:15.211Z,47.28
2023-05-08T04:18:52.203Z,47.66
2023-05-08T04:21:26.748Z,48.18
2023-05-08T04:24:02.786Z,48.40
2023-05-08T04:26:38.611Z,48.42
2023-05-08T04:29:15.209Z,48.66
2023-05-08T04:31:51.554Z,48.63
2023-05-08T04:34:27.317Z,48.93
2023-05-08T04:37:01.832Z,49.09
2023-05-08T04:39:33.345Z,48.89
2023-05-08T04:42:17.001Z,49.10
2023-05-08T04:44:51.524Z,48.98
2023-05-08T04:47:28.401Z,49.28
2023-05-08T04:50:03.705Z,49.34
2023-05-08T04:52:36.097Z,49.54
2023-05-08T04:55:11.278Z,49.60
2023-05-08T04:57:40.973Z,49.60
2023-05-08T05:00:11.252Z,49.75
2023-05-08T05:02:40.821Z,49.91
2023-05-08T05:05:10.695Z,50.01
2023-05-08T05:07:40.447Z,50.16
2023-05-08T05:10:10.879Z,50.08
2023-05-08T05:12:46.723Z,49.85
2023-05-08T05:15:16.483Z,49.76
2023-05-08T05:17:46.513Z,49.89
2023-05-08T05:20:16.348Z,49.79
2023-05-08T05:22:45.727Z,49.83
2023-05-08T05:25:17.715Z,50.08
2023-05-08T05:27:47.543Z,50.20
2023-05-08T05:30:17.099Z,50.08
2023-05-08T05:32:46.660Z,50.13
2023-05-08T05:35:16.210Z,50.16
2023-05-08T05:37:45.552Z,50.20
2023-05-08T05:40:15.712Z,50.24
2023-05-08T05:42:51.612Z,50.49
2023-05-08T05:45:21.306Z,50.50
2023-05-08T05:47:51.706Z,50.78
2023-05-08T05:50:21.404Z,51.21
2023-05-08T05:52:50.973Z,52.23
2023-05-08T05:55:20.287Z,52.82
2023-05-08T05:57:49.803Z,53.25
2023-05-08T06:00:19.654Z,53.81
2023-05-08T06:02:49.359Z,54.62
2023-05-08T06:05:20.894Z,55.28
2023-05-08T06:07:50.270Z,55.85
2023-05-08T06:10:19.631Z,56.11
2023-05-08T06:12:49.685Z,56.75
2023-05-08T06:15:19.787Z,56.94
2023-05-08T06:17:49.305Z,57.41
2023-05-08T06:20:18.918Z,57.33
2023-05-08T06:22:48.316Z,57.98
2023-05-08T06:25:18.604Z,58.26
2023-05-08T06:27:47.886Z,58.77
2023-05-08T06:30:17.487Z,59.47
2023-05-08T06:32:46.910Z,59.79
2023-05-08T06:35:20.619Z,60.14
2023-05-08T06:37:49.904Z,60.51
2023-05-08T06:40:19.345Z,60.75
2023-05-08T06:42:48.609Z,60.85
2023-05-08T06:45:18.171Z,61.13
2023-05-08T06:47:47.612Z,61.39
2023-05-08T06:50:17.145Z,61.52
2023-05-08T06:52:46.492Z,61.71
2023-05-08T06:55:18.518Z,62.11
2023-05-08T06:57:48.063Z,62.44
2023-05-08T07:00:17.789Z,62.87
2023-05-08T07:02:47.122Z,62.89
2023-05-08T07:05:16.935Z,63.07
2023-05-08T07:07:46.946Z,63.22
2023-05-08T07:10:18.053Z,63.24
2023-05-08T07:12:47.225Z,63.56
2023-05-08T07:15:25.654Z,63.69
2023-05-08T07:17:56.305Z,63.83
2023-05-08T07:20:26.365Z,63.80
2023-05-08T07:22:56.058Z,63.93
2023-05-08T07:25:25.646Z,64.00
2023-05-08T07:27:54.987Z,64.09
2023-05-08T07:30:24.626Z,64.15
2023-05-08T07:32:54.055Z,64.42
2023-05-08T07:35:23.653Z,64.58
2023-05-08T07:37:53.021Z,64.46
2023-05-08T07:40:22.496Z,64.56
2023-05-08T07:42:52.232Z,64.69
2023-05-08T07:45:21.748Z,64.79
2023-05-08T07:47:53.674Z,64.91
2023-05-08T07:50:23.741Z,65.10
2023-05-08T07:52:54.096Z,65.08
2023-05-08T07:55:23.519Z,65.06
2023-05-08T07:57:52.746Z,64.97
2023-05-08T08:00:22.347Z,65.19
2023-05-08T08:02:51.795Z,65.11
2023-05-08T08:05:21.567Z,65.05
2023-05-08T08:07:50.890Z,65.17
2023-05-08T08:10:20.252Z,65.41
2023-05-08T08:12:49.533Z,65.50
2023-05-08T08:15:19.006Z,65.65
2023-05-08T08:17:48.579Z,65.66
2023-05-08T08:20:17.977Z,65.56
2023-05-08T08:22:47.638Z,65.81
2023-05-08T08:25:17.461Z,65.89
2023-05-08T08:27:47.416Z,65.78
2023-05-08T08:30:18.507Z,65.90
2023-05-08T08:32:48.618Z,65.98
2023-05-08T08:35:18.446Z,66.05
2023-05-08T08:37:48.359Z,66.23
2023-05-08T08:40:18.165Z,66.30
2023-05-08T08:42:48.398Z,66.29
2023-05-08T08:45:18.184Z,66.32
2023-05-08T08:47:50.247Z,66.19
2023-05-08T08:50:24.113Z,66.32
2023-05-08T08:53:18.675Z,66.33
2023-05-08T08:55:55.054Z,66.31
2023-05-08T08:58:39.103Z,66.36
2023-05-08T09:01:16.268Z,66.39
2023-05-08T09:03:47.574Z,66.33
2023-05-08T09:06:18.963Z,66.18
2023-05-08T09:08:49.521Z,66.11
2023-05-08T09:11:18.966Z,66.00
2023-05-08T09:13:48.270Z,66.37
2023-05-08T09:16:21.617Z,66.31
2023-05-08T09:18:53.699Z,66.32
2023-05-08T09:21:26.240Z,66.43
2023-05-08T09:24:07.477Z,66.50
2023-05-08T09:26:40.666Z,66.41
2023-05-08T09:29:22.956Z,66.30
2023-05-08T09:31:55.251Z,66.30
2023-05-08T09:34:34.482Z,66.35
2023-05-08T09:37:13.870Z,66.37
2023-05-08T09:39:44.794Z,66.57
2023-05-08T09:42:14.030Z,66.68
2023-05-08T09:44:53.326Z,66.90
2023-05-08T09:47:25.758Z,67.20
2023-05-08T09:50:06.285Z,67.09
2023-05-08T09:52:37.956Z,66.83
2023-05-08T09:55:13.045Z,66.76
2023-05-08T09:58:00.538Z,67.02
2023-05-08T10:00:40.308Z,67.21
2023-05-08T10:03:09.861Z,67.02
2023-05-08T10:05:42.011Z,67.26
2023-05-08T10:08:24.863Z,67.05
2023-05-08T10:10:54.461Z,67.22
2023-05-08T10:13:23.939Z,66.90
2023-05-08T10:15:58.399Z,66.99
2023-05-08T10:18:33.711Z,67.25
2023-05-08T10:21:10.119Z,67.17
2023-05-08T10:23:41.626Z,67.11
2023-05-08T10:26:20.734Z,67.13
2023-05-08T10:29:21.444Z,66.94
2023-05-08T10:31:56.675Z,67.07
2023-05-08T10:34:33.523Z,67.09
2023-05-08T10:37:03.635Z,67.04
2023-05-08T10:39:35.084Z,67.19
2023-05-08T10:42:05.180Z,67.25
2023-05-08T10:44:34.992Z,67.14
2023-05-08T10:47:26.801Z,66.96
2023-05-08T10:50:41.516Z,67.13
2023-05-08T10:53:44.531Z,67.30
2023-05-08T10:56:16.520Z,67.24
2023-05-08T10:58:45.910Z,67.28
2023-05-08T11:01:17.121Z,67.28
2023-05-08T11:03:56.628Z,67.22
2023-05-08T11:06:54.407Z,67.12
2023-05-08T11:09:31.081Z,67.19
2023-05-08T11:12:20.466Z,67.17
2023-05-08T11:15:13.162Z,67.20
2023-05-08T11:17:47.793Z,67.50
2023-05-08T11:20:17.368Z,67.68
2023-05-08T11:22:50.386Z,67.84
2023-05-08T11:25:20.454Z,67.96
2023-05-08T11:27:52.344Z,68.07
2023-05-08T11:30:37.300Z,68.25
2023-05-08T11:33:06.785Z,68.33
2023-05-08T11:35:59.609Z,68.51
2023-05-08T11:38:39.375Z,68.56
2023-05-08T11:41:35.171Z,68.59
2023-05-08T11:44:21.542Z,68.64
2023-05-08T11:47:01.860Z,68.49
2023-05-08T11:49:31.456Z,68.56
2023-05-08T11:52:01.576Z,68.41
2023-05-08T11:54:33.218Z,68.36
2023-05-08T11:57:02.938Z,68.45
2023-05-08T11:59:38.478Z,68.40
2023-05-08T12:02:09.479Z,68.37
2023-05-08T12:04:49.967Z,68.20
2023-05-08T12:07:19.943Z,68.33
2023-05-08T12:09:49.369Z,68.47
2023-05-08T12:12:18.798Z,68.61
2023-05-08T12:14:52.962Z,68.84
2023-05-08T12:17:22.970Z,68.92
2023-05-08T12:19:57.863Z,69.04
2023-05-08T12:22:27.154Z,69.17
2023-05-08T12:24:56.630Z,69.16
2023-05-08T12:27:28.550Z,69.05
2023-05-08T12:29:59.353Z,68.90
2023-05-08T12:32:32.013Z,68.93
2023-05-08T12:35:02.366Z,68.89
2023-05-08T12:37:32.075Z,68.85
2023-05-08T12:40:02.082Z,68.73
2023-05-08T12:42:55.751Z,68.84
2023-05-08T12:45:32.083Z,68.70
2023-05-08T12:48:13.306Z,68.40
2023-05-08T12:50:45.773Z,68.48
2023-05-08T12:53:19.585Z,68.32
2023-05-08T12:56:01.416Z,68.53
2023-05-08T12:58:36.883Z,69.02
2023-05-08T13:01:15.251Z,69.41
2023-05-08T13:03:47.089Z,69.79
2023-05-08T13:06:24.328Z,69.92
2023-05-08T13:08:57.434Z,69.92
2023-05-08T13:11:36.299Z,70.03
2023-05-08T13:14:05.876Z,70.18
2023-05-08T13:16:49.214Z,70.23
2023-05-08T13:19:19.299Z,70.33
2023-05-08T13:21:49.090Z,70.19
2023-05-08T13:24:19.107Z,70.28
2023-05-08T13:26:48.456Z,70.18
2023-05-08T13:29:23.503Z,69.93
2023-05-08T13:31:52.931Z,69.80
2023-05-08T13:34:22.768Z,70.02
2023-05-08T13:36:55.069Z,69.97
2023-05-08T13:39:24.685Z,70.19
2023-05-08T13:41:54.078Z,70.24
2023-05-08T13:44:23.764Z,70.25
2023-05-08T13:46:53.143Z,70.47
2023-05-08T13:49:25.548Z,70.08
2023-05-08T13:51:57.064Z,69.97
2023-05-08T13:54:27.672Z,69.90
2023-05-08T13:56:57.324Z,69.88
2023-05-08T13:59:26.985Z,69.81
2023-05-08T14:01:56.940Z,69.60
2023-05-08T14:04:26.488Z,69.33
2023-05-08T14:06:56.198Z,69.37
2023-05-08T14:09:25.643Z,69.01
2023-05-08T14:11:58.730Z,68.93
2023-05-08T14:14:33.152Z,68.89
2023-05-08T14:17:04.113Z,68.58
2023-05-08T14:19:37.427Z,68.62
2023-05-08T14:22:08.184Z,68.70
2023-05-08T14:24:37.456Z,68.65
2023-05-08T14:27:10.194Z,68.61
2023-05-08T14:29:39.880Z,68.48
2023-05-08T14:32:10.677Z,68.63
2023-05-08T14:34:40.603Z,68.66
2023-05-08T14:37:10.346Z,68.40
2023-05-08T14:39:41.342Z,68.13
2023-05-08T14:42:22.883Z,68.25
2023-05-08T14:44:53.638Z,68.34
2023-05-08T14:47:24.638Z,68.05
2023-05-08T14:49:58.189Z,67.91
2023-05-08T14:52:27.700Z,68.00
2023-05-08T14:54:57.348Z,68.13
2023-05-08T14:57:26.921Z,67.82
2023-05-08T14:59:57.445Z,67.55
2023-05-08T15:02:27.062Z,67.20
2023-05-08T15:04:56.560Z,67.12
2023-05-08T15:07:26.075Z,67.03
2023-05-08T15:09:55.550Z,66.94
2023-05-08T15:12:25.103Z,67.05
2023-05-08T15:14:54.713Z,67.10
2023-05-08T15:17:24.209Z,67.15
2023-05-08T15:19:53.592Z,67.06
2023-05-08T15:22:22.840Z,67.18
2023-05-08T15:24:52.389Z,67.26
2023-05-08T15:27:21.863Z,67.28
2023-05-08T15:29:51.581Z,67.35
2023-05-08T15:32:21.203Z,67.76
2023-05-08T15:34:50.508Z,67.91
2023-05-08T15:37:19.853Z,68.25
2023-05-08T15:39:51.987Z,68.52
2023-05-08T15:42:24.499Z,68.71
2023-05-08T15:45:00.955Z,68.91
2023-05-08T15:47:30.444Z,68.86
2023-05-08T15:50:00.198Z,69.08
2023-05-08T15:52:29.379Z,69.36
2023-05-08T15:54:58.656Z,69.13
2023-05-08T15:57:28.286Z,68.76
2023-05-08T15:59:57.810Z,68.50
2023-05-08T16:02:27.201Z,68.80
2023-05-08T16:04:59.825Z,68.89
2023-05-08T16:07:29.267Z,68.62
2023-05-08T16:09:58.612Z,68.52
2023-05-08T16:12:28.072Z,68.62
2023-05-08T16:15:00.285Z,68.81
2023-05-08T16:17:29.733Z,68.45
2023-05-08T16:19:59.457Z,68.10
2023-05-08T16:22:29.262Z,67.92
2023-05-08T16:24:59.016Z,67.52
2023-05-08T16:27:30.155Z,67.55
2023-05-08T16:29:59.442Z,67.66
2023-05-08T16:32:28.881Z,67.12
2023-05-08T16:34:58.203Z,67.23
2023-05-08T16:37:27.667Z,67.15
2023-05-08T16:39:56.927Z,66.66
2023-05-08T16:42:26.407Z,66.29
2023-05-08T16:44:55.620Z,66.34
2023-05-08T16:47:25.111Z,65.90
2023-05-08T16:49:55.189Z,66.01
2023-05-08T16:52:24.524Z,66.05
2023-05-08T16:54:54.476Z,64.44
2023-05-08T16:57:23.813Z,63.50
2023-05-08T16:59:53.019Z,64.13
2023-05-08T17:02:22.927Z,64.64
2023-05-08T17:04:52.354Z,64.17
2023-05-08T17:07:21.298Z,63.28
2023-05-08T17:09:53.970Z,62.61
2023-05-08T17:12:22.809Z,62.22
2023-05-08T17:14:52.011Z,62.32
2023-05-08T17:17:21.124Z,62.48
2023-05-08T17:19:49.830Z,61.83
2023-05-08T17:22:20.584Z,61.84
2023-05-08T17:24:49.818Z,61.82
2023-05-08T17:27:20.519Z,61.39
2023-05-08T17:29:50.152Z,61.09
2023-05-08T17:32:19.130Z,61.20
2023-05-08T17:34:48.040Z,60.93
2023-05-08T17:37:16.929Z,60.12
2023-05-08T17:39:45.889Z,59.32
2023-05-08T17:42:14.739Z,59.37
2023-05-08T17:44:47.872Z,58.99
2023-05-08T17:47:16.587Z,58.68
2023-05-08T17:49:45.413Z,58.73
2023-05-08T17:52:14.258Z,58.28
2023-05-08T17:54:43.389Z,58.04
2023-05-08T17:57:12.183Z,57.70
2023-05-08T17:59:41.125Z,58.13
2023-05-08T18:02:10.022Z,57.53
2023-05-08T18:04:38.889Z,57.27
2023-05-08T18:07:08.395Z,57.17
2023-05-08T18:09:37.240Z,56.57
2023-05-08T18:12:07.202Z,56.64
2023-05-08T18:14:36.382Z,55.91
2023-05-08T18:17:05.274Z,55.55
2023-05-08T18:19:34.261Z,55.87
2023-05-08T18:22:03.017Z,55.52
2023-05-08T18:24:31.941Z,54.52
2023-05-08T18:27:00.774Z,53.91
2023-05-08T18:29:29.657Z,54.10
2023-05-08T18:32:01.425Z,53.38
2023-05-08T18:34:30.332Z,53.38
2023-05-08T18:36:59.305Z,53.55
2023-05-08T18:39:28.069Z,52.31
2023-05-08T18:41:56.811Z,52.36
2023-05-08T18:44:25.641Z,53.14
2023-05-08T18:46:54.501Z,52.62
2023-05-08T18:49:24.404Z,51.25
2023-05-08T18:51:53.286Z,51.86
2023-05-08T18:54:22.842Z,51.25
2023-05-08T18:56:51.812Z,50.59
2023-05-08T18:59:21.186Z,51.13
2023-05-08T19:01:55.347Z,50.89
2023-05-08T19:04:24.192Z,51.11
2023-05-08T19:06:53.171Z,50.31
2023-05-08T19:09:22.091Z,50.14
2023-05-08T19:11:51.054Z,49.33
2023-05-08T19:14:20.118Z,48.86
2023-05-08T19:16:48.946Z,49.52
2023-05-08T19:19:17.961Z,48.84
2023-05-08T19:21:47.078Z,47.71
2023-05-08T19:24:20.852Z,47.23
2023-05-08T19:26:50.133Z,46.60
2023-05-08T19:29:18.961Z,46.09
2023-05-08T19:31:47.695Z,46.44
2023-05-08T19:34:20.262Z,46.11
2023-05-08T19:36:49.188Z,45.60
2023-05-08T19:39:36.017Z,44.68
2023-05-08T19:42:05.128Z,45.75
2023-05-08T19:44:33.878Z,45.49
2023-05-08T19:47:06.460Z,44.94
2023-05-08T19:49:35.558Z,45.14
2023-05-08T19:52:04.682Z,44.46
2023-05-08T19:54:33.702Z,44.28
2023-05-08T19:57:05.845Z,44.11
2023-05-08T19:59:38.048Z,44.15
2023-05-08T20:02:12.301Z,44.53
2023-05-08T20:07:15.760Z,44.45
2023-05-08T20:09:48.060Z,43.73
2023-05-08T20:12:16.993Z,43.64
2023-05-08T20:14:51.673Z,42.93
2023-05-08T20:17:20.913Z,43.01
2023-05-08T20:19:51.547Z,42.66
2023-05-08T20:22:20.736Z,42.34
2023-05-08T20:24:51.947Z,40.53
2023-05-08T20:27:20.817Z,40.15
2023-05-08T20:29:49.764Z,39.78
2023-05-08T20:32:23.173Z,39.64
2023-05-08T20:34:54.939Z,39.55
2023-05-08T20:37:28.834Z,39.76
2023-05-08T20:39:59.494Z,39.70
2023-05-08T20:42:28.258Z,39.76
2023-05-08T20:44:57.177Z,39.76
2023-05-08T20:47:26.117Z,40.06
2023-05-08T20:49:54.884Z,40.05
2023-05-08T20:52:27.037Z,40.44
2023-05-08T20:54:57.377Z,40.01
2023-05-08T20:57:31.973Z,38.90
2023-05-08T21:00:00.718Z,37.48
2023-05-08T21:02:30.266Z,36.86
2023-05-08T21:05:04.108Z,37.05
2023-05-08T21:07:35.232Z,36.63
2023-05-08T21:10:07.483Z,37.09
2023-05-08T21:12:36.735Z,36.91
2023-05-08T21:15:10.821Z,36.87
2023-05-08T21:17:41.840Z,37.35
2023-05-08T21:20:14.528Z,38.18
2023-05-08T21:22:43.458Z,38.84
2023-05-08T21:25:33.307Z,39.13
2023-05-08T21:28:05.523Z,39.61
2023-05-08T21:30:40.418Z,40.17
2023-05-08T21:33:18.404Z,41.07
2023-05-08T21:35:48.910Z,42.38
2023-05-08T21:38:17.848Z,43.67
2023-05-08T21:40:46.638Z,43.96
2023-05-08T21:43:15.463Z,44.74
2023-05-08T21:45:44.297Z,45.20
2023-05-08T21:48:13.298Z,46.23
2023-05-08T21:50:41.998Z,46.52
2023-05-08T21:53:11.010Z,46.63
2023-05-08T21:55:39.964Z,46.83
2023-05-08T21:58:08.708Z,46.94
2023-05-08T22:00:37.511Z,47.57
2023-05-08T22:03:06.757Z,47.54
2023-05-08T22:05:35.653Z,48.23
2023-05-08T22:08:04.644Z,48.01
2023-05-08T22:10:33.463Z,48.36
2023-05-08T22:13:02.858Z,47.81
2023-05-08T22:15:32.017Z,48.03
2023-05-08T22:18:03.371Z,48.31
2023-05-08T22:20:32.476Z,48.03
2023-05-08T22:23:01.659Z,48.40
2023-05-08T22:25:30.535Z,48.23
2023-05-08T22:27:59.715Z,47.97
2023-05-08T22:30:28.594Z,47.93
2023-05-08T22:33:00.466Z,46.89
2023-05-08T22:35:29.995Z,45.93
2023-05-08T22:38:01.916Z,45.55
2023-05-08T22:40:30.992Z,44.43
2023-05-08T22:43:02.751Z,43.26
2023-05-08T22:45:33.163Z,42.48
2023-05-08T22:48:02.096Z,42.40
2023-05-08T22:50:30.988Z,42.04
2023-05-08T22:52:59.876Z,41.51
2023-05-08T22:55:28.855Z,41.18
2023-05-08T22:58:00.149Z,40.60
2023-05-08T23:00:29.135Z,41.31
2023-05-08T23:02:58.398Z,41.32
2023-05-08T23:05:27.391Z,41.22
2023-05-08T23:07:56.764Z,41.67
2023-05-08T23:10:26.488Z,41.80
2023-05-08T23:12:55.506Z,41.63
2023-05-08T23:15:24.549Z,42.21
2023-05-08T23:17:53.334Z,42.51
2023-05-08T23:20:22.431Z,42.52
2023-05-08T23:22:51.475Z,42.75
2023-05-08T23:25:20.736Z,42.89
2023-05-08T23:27:50.287Z,43.46
2023-05-08T23:30:19.264Z,43.79
2023-05-08T23:32:48.262Z,43.95
2023-05-08T23:35:17.310Z,44.09
2023-05-08T23:37:46.912Z,44.41
2023-05-08T23:40:15.609Z,44.84
2023-05-08T23:42:47.009Z,45.03
2023-05-08T23:45:20.081Z,45.31
2023-05-08T23:47:50.292Z,45.79
2023-05-08T23:50:19.218Z,46.20
2023-05-08T23:52:50.343Z,46.80
2023-05-08T23:55:20.147Z,47.25
2023-05-08T23:57:53.022Z,47.68
